sensor_id;sensor_type;location;lat;lon;timestamp;temperature;humidity
3794;DHT22;1912;51.358;12.282;2024-03-23T04:51:09;8.70;1.00
3794;DHT22;1912;51.358;12.282;2024-03-23T04:53:35;8.70;1.00
3794;DHT22;1912;51.358;12.282;2024-03-23T04:56:00;8.70;1.00
3794;DHT22;1912;51.358;12.282;2024-03-23T04:58:26;8.70;1.00
3794;DHT22;1912;51.358;12.282;2024-03-23T05:00:56;8.70;1.00
3794;DHT22;1912;51.358;12.282;2024-03-23T05:03:22;8.70;1.00
3794;DHT22;1912;51.358;12.282;2024-03-23T05:05:49;8.70;1.00
3794;DHT22;1912;51.358;12.282;2024-03-23T05:08:15;8.60;1.00
3794;DHT22;1912;51.358;12.282;2024-03-23T05:10:42;8.60;1.00
3794;DHT22;1912;51.358;12.282;2024-03-23T05:13:08;8.50;1.00
3794;DHT22;1912;51.358;12.282;2024-03-23T05:15:34;8.50;1.00
3794;DHT22;1912;51.358;12.282;2024-03-23T05:18:00;8.50;1.00
3794;DHT22;1912;51.358;12.282;2024-03-23T05:20:25;8.50;1.00
3794;DHT22;1912;51.358;12.282;2024-03-23T05:22:51;8.50;1.00
3794;DHT22;1912;51.358;12.282;2024-03-23T05:25:17;8.50;1.00
3794;DHT22;1912;51.358;12.282;2024-03-23T05:27:42;8.40;1.00
3794;DHT22;1912;51.358;12.282;2024-03-23T05:30:08;8.40;1.00
3794;DHT22;1912;51.358;12.282;2024-03-23T05:32:34;8.40;1.00
3794;DHT22;1912;51.358;12.282;2024-03-23T05:35:00;8.40;1.00
3794;DHT22;1912;51.358;12.282;2024-03-23T05:37:26;8.40;1.00
3794;DHT22;1912;51.358;12.282;2024-03-23T05:39:52;8.40;1.00
3794;DHT22;1912;51.358;12.282;2024-03-23T05:42:18;8.30;1.00
3794;DHT22;1912;51.358;12.282;2024-03-23T05:44:47;8.30;1.00
3794;DHT22;1912;51.358;12.282;2024-03-23T05:47:13;8.30;1.00
3794;DHT22;1912;51.358;12.282;2024-03-23T05:49:42;8.30;1.00
3794;DHT22;1912;51.358;12.282;2024-03-23T05:52:09;8.30;1.00
3794;DHT22;1912;51.358;12.282;2024-03-23T05:54:35;8.30;1.00
3794;DHT22;1912;51.358;12.282;2024-03-23T05:57:01;8.30;1.00
3794;DHT22;1912;51.358;12.282;2024-03-23T05:59:27;8.30;1.00
3794;DHT22;1912;51.358;12.282;2024-03-23T06:01:53;8.20;1.00
3794;DHT22;1912;51.358;12.282;2024-03-23T06:04:19;8.30;1.00
3794;DHT22;1912;51.358;12.282;2024-03-23T06:06:45;8.20;1.00
3794;DHT22;1912;51.358;12.282;2024-03-23T06:09:11;8.20;1.00
3794;DHT22;1912;51.358;12.282;2024-03-23T06:11:36;8.30;1.00
3794;DHT22;1912;51.358;12.282;2024-03-23T06:14:02;8.30;1.00
3794;DHT22;1912;51.358;12.282;2024-03-23T06:16:28;8.30;1.00
3794;DHT22;1912;51.358;12.282;2024-03-23T06:18:54;8.30;1.00
3794;DHT22;1912;51.358;12.282;2024-03-23T06:21:26;8.30;1.00
3794;DHT22;1912;51.358;12.282;2024-03-23T06:23:54;8.40;1.00
3794;DHT22;1912;51.358;12.282;2024-03-23T06:26:26;8.30;1.00
3794;DHT22;1912;51.358;12.282;2024-03-23T06:28:54;8.30;1.00
3794;DHT22;1912;51.358;12.282;2024-03-23T06:31:22;8.30;1.00
3794;DHT22;1912;51.358;12.282;2024-03-23T06:33:49;8.30;1.00
3794;DHT22;1912;51.358;12.282;2024-03-23T06:36:14;8.30;1.00
3794;DHT22;1912;51.358;12.282;2024-03-23T06:38:43;8.40;1.00
3794;DHT22;1912;51.358;12.282;2024-03-23T06:41:21;8.50;1.00
3794;DHT22;1912;51.358;12.282;2024-03-23T06:43:59;8.50;1.00
3794;DHT22;1912;51.358;12.282;2024-03-23T06:46:26;8.50;1.00
3794;DHT22;1912;51.358;12.282;2024-03-23T06:48:58;8.50;1.00
3794;DHT22;1912;51.358;12.282;2024-03-23T06:51:32;8.50;1.00
3794;DHT22;1912;51.358;12.282;2024-03-23T06:54:02;8.40;1.00
3794;DHT22;1912;51.358;12.282;2024-03-23T06:56:35;8.40;1.00
3794;DHT22;1912;51.358;12.282;2024-03-23T06:59:06;8.40;1.00
3794;DHT22;1912;51.358;12.282;2024-03-23T07:01:35;8.40;1.00
3794;DHT22;1912;51.358;12.282;2024-03-23T07:04:08;8.40;1.00
3794;DHT22;1912;51.358;12.282;2024-03-23T07:06:45;8.50;1.00
3794;DHT22;1912;51.358;12.282;2024-03-23T07:09:18;8.40;1.00
3794;DHT22;1912;51.358;12.282;2024-03-23T07:11:47;8.40;1.00
3794;DHT22;1912;51.358;12.282;2024-03-23T07:14:14;8.40;1.00
3794;DHT22;1912;51.358;12.282;2024-03-23T07:16:44;8.30;1.00
3794;DHT22;1912;51.358;12.282;2024-03-23T07:19:19;8.40;1.00
3794;DHT22;1912;51.358;12.282;2024-03-23T07:21:49;8.30;1.00
3794;DHT22;1912;51.358;12.282;2024-03-23T07:24:23;8.30;1.00
3794;DHT22;1912;51.358;12.282;2024-03-23T07:26:55;8.10;1.00
3794;DHT22;1912;51.358;12.282;2024-03-23T07:29:32;8.00;1.00
3794;DHT22;1912;51.358;12.282;2024-03-23T07:31:59;7.80;1.00
3794;DHT22;1912;51.358;12.282;2024-03-23T07:34:37;7.70;1.00
3794;DHT22;1912;51.358;12.282;2024-03-23T07:37:08;7.40;1.00
3794;DHT22;1912;51.358;12.282;2024-03-23T07:39:39;7.20;1.00
3794;DHT22;1912;51.358;12.282;2024-03-23T07:42:16;7.10;1.00
3794;DHT22;1912;51.358;12.282;2024-03-23T07:44:48;7.00;1.00
3794;DHT22;1912;51.358;12.282;2024-03-23T07:47:15;6.90;1.00
3794;DHT22;1912;51.358;12.282;2024-03-23T07:49:45;6.70;1.00
3794;DHT22;1912;51.358;12.282;2024-03-23T07:52:19;6.50;1.00
3794;DHT22;1912;51.358;12.282;2024-03-23T07:54:50;6.30;1.00
3794;DHT22;1912;51.358;12.282;2024-03-23T07:57:26;6.10;1.00
3794;DHT22;1912;51.358;12.282;2024-03-23T08:00:02;6.00;1.00
3794;DHT22;1912;51.358;12.282;2024-03-23T08:02:32;5.90;1.00
3794;DHT22;1912;51.358;12.282;2024-03-23T08:04:59;5.70;1.00
3794;DHT22;1912;51.358;12.282;2024-03-23T08:07:33;5.70;1.00
3794;DHT22;1912;51.358;12.282;2024-03-23T08:10:02;5.60;1.00
3794;DHT22;1912;51.358;12.282;2024-03-23T08:12:39;5.60;1.00
3794;DHT22;1912;51.358;12.282;2024-03-23T08:15:10;5.60;1.00
3794;DHT22;1912;51.358;12.282;2024-03-23T08:17:39;5.50;1.00
3794;DHT22;1912;51.358;12.282;2024-03-23T08:20:14;5.40;1.00
3794;DHT22;1912;51.358;12.282;2024-03-23T08:22:43;5.20;1.00
3794;DHT22;1912;51.358;12.282;2024-03-23T08:25:08;5.10;1.00
3794;DHT22;1912;51.358;12.282;2024-03-23T08:27:34;5.10;1.00
3794;DHT22;1912;51.358;12.282;2024-03-23T08:29:59;5.00;1.00
3794;DHT22;1912;51.358;12.282;2024-03-23T08:32:25;5.00;1.00
3794;DHT22;1912;51.358;12.282;2024-03-23T08:34:51;4.90;1.00
3794;DHT22;1912;51.358;12.282;2024-03-23T08:37:16;4.90;1.00
3794;DHT22;1912;51.358;12.282;2024-03-23T08:39:43;4.90;1.00
3794;DHT22;1912;51.358;12.282;2024-03-23T08:42:09;4.90;1.00
3794;DHT22;1912;51.358;12.282;2024-03-23T08:44:34;4.90;1.00
3794;DHT22;1912;51.358;12.282;2024-03-23T08:47:01;4.80;1.00
3794;DHT22;1912;51.358;12.282;2024-03-23T08:49:27;4.80;1.00
3794;DHT22;1912;51.358;12.282;2024-03-23T08:51:53;4.80;1.00
3794;DHT22;1912;51.358;12.282;2024-03-23T08:54:19;4.70;1.00
3794;DHT22;1912;51.358;12.282;2024-03-23T08:56:46;4.70;1.00
3794;DHT22;1912;51.358;12.282;2024-03-23T08:59:11;4.70;1.00
3794;DHT22;1912;51.358;12.282;2024-03-23T09:01:37;4.70;1.00
3794;DHT22;1912;51.358;12.282;2024-03-23T09:04:03;4.80;1.00
3794;DHT22;1912;51.358;12.282;2024-03-23T09:06:29;4.80;1.00
3794;DHT22;1912;51.358;12.282;2024-03-23T09:08:55;4.80;1.00
3794;DHT22;1912;51.358;12.282;2024-03-23T09:11:21;4.80;1.00
3794;DHT22;1912;51.358;12.282;2024-03-23T09:13:46;4.90;1.00
3794;DHT22;1912;51.358;12.282;2024-03-23T09:16:12;5.00;1.00
3794;DHT22;1912;51.358;12.282;2024-03-23T09:18:38;5.00;1.00
3794;DHT22;1912;51.358;12.282;2024-03-23T09:21:09;5.00;1.00
3794;DHT22;1912;51.358;12.282;2024-03-23T09:23:36;4.90;1.00
3794;DHT22;1912;51.358;12.282;2024-03-23T09:26:05;4.90;1.00
3794;DHT22;1912;51.358;12.282;2024-03-23T09:28:33;4.90;1.00
3794;DHT22;1912;51.358;12.282;2024-03-23T09:31:08;5.10;1.00
3794;DHT22;1912;51.358;12.282;2024-03-23T09:33:35;5.10;1.00
3794;DHT22;1912;51.358;12.282;2024-03-23T09:36:04;5.00;1.00
3794;DHT22;1912;51.358;12.282;2024-03-23T09:38:31;4.90;1.00
3794;DHT22;1912;51.358;12.282;2024-03-23T09:40:57;4.80;1.00
3794;DHT22;1912;51.358;12.282;2024-03-23T09:43:23;4.90;1.00
3794;DHT22;1912;51.358;12.282;2024-03-23T09:45:49;4.90;1.00
3794;DHT22;1912;51.358;12.282;2024-03-23T09:48:15;4.80;1.00
3794;DHT22;1912;51.358;12.282;2024-03-23T09:50:43;4.80;1.00
3794;DHT22;1912;51.358;12.282;2024-03-23T09:53:13;4.70;1.00
3794;DHT22;1912;51.358;12.282;2024-03-23T09:55:42;4.80;1.00
3794;DHT22;1912;51.358;12.282;2024-03-23T09:58:12;4.80;1.00
3794;DHT22;1912;51.358;12.282;2024-03-23T10:00:39;4.80;1.00
3794;DHT22;1912;51.358;12.282;2024-03-23T10:03:04;4.80;1.00
3794;DHT22;1912;51.358;12.282;2024-03-23T10:05:32;4.70;1.00
3794;DHT22;1912;51.358;12.282;2024-03-23T10:08:00;4.60;1.00
3794;DHT22;1912;51.358;12.282;2024-03-23T10:10:26;4.60;1.00
3794;DHT22;1912;51.358;12.282;2024-03-23T10:12:52;4.60;1.00
3794;DHT22;1912;51.358;12.282;2024-03-23T10:15:24;4.50;1.00
3794;DHT22;1912;51.358;12.282;2024-03-23T10:17:51;4.40;1.00
3794;DHT22;1912;51.358;12.282;2024-03-23T10:20:21;4.40;1.00
3794;DHT22;1912;51.358;12.282;2024-03-23T10:22:50;4.40;1.00
3794;DHT22;1912;51.358;12.282;2024-03-23T10:25:24;4.40;1.00
3794;DHT22;1912;51.358;12.282;2024-03-23T10:27:59;4.40;1.00
3794;DHT22;1912;51.358;12.282;2024-03-23T10:30:26;4.20;1.00
3794;DHT22;1912;51.358;12.282;2024-03-23T10:33:10;4.20;1.00
3794;DHT22;1912;51.358;12.282;2024-03-23T10:35:39;4.20;1.00
3794;DHT22;1912;51.358;12.282;2024-03-23T10:38:06;4.00;1.00
3794;DHT22;1912;51.358;12.282;2024-03-23T10:40:36;4.00;1.00
3794;DHT22;1912;51.358;12.282;2024-03-23T10:43:03;4.00;1.00
3794;DHT22;1912;51.358;12.282;2024-03-23T10:45:30;3.90;1.00
3794;DHT22;1912;51.358;12.282;2024-03-23T10:47:56;4.00;1.00
3794;DHT22;1912;51.358;12.282;2024-03-23T10:50:23;4.00;1.00
3794;DHT22;1912;51.358;12.282;2024-03-23T10:52:49;4.10;1.00
3794;DHT22;1912;51.358;12.282;2024-03-23T10:55:17;4.10;1.00
3794;DHT22;1912;51.358;12.282;2024-03-23T10:57:56;4.20;1.00
3794;DHT22;1912;51.358;12.282;2024-03-23T11:00:22;4.30;1.00
3794;DHT22;1912;51.358;12.282;2024-03-23T11:02:48;4.40;1.00
3794;DHT22;1912;51.358;12.282;2024-03-23T11:07:52;4.60;1.00
3794;DHT22;1912;51.358;12.282;2024-03-23T11:10:28;4.70;1.00
3794;DHT22;1912;51.358;12.282;2024-03-23T11:12:56;4.70;1.00
3794;DHT22;1912;51.358;12.282;2024-03-23T11:15:22;4.60;1.00
3794;DHT22;1912;51.358;12.282;2024-03-23T11:18:06;4.70;1.00
3794;DHT22;1912;51.358;12.282;2024-03-23T11:20:35;4.90;1.00
3794;DHT22;1912;51.358;12.282;2024-03-23T11:23:01;5.00;1.00
3794;DHT22;1912;51.358;12.282;2024-03-23T11:25:28;4.90;1.00
3794;DHT22;1912;51.358;12.282;2024-03-23T11:28:10;5.10;1.00
3794;DHT22;1912;51.358;12.282;2024-03-23T11:30:37;5.00;1.00
3794;DHT22;1912;51.358;12.282;2024-03-23T11:33:04;5.20;1.00
3794;DHT22;1912;51.358;12.282;2024-03-23T11:35:33;5.20;1.00
3794;DHT22;1912;51.358;12.282;2024-03-23T11:38:16;5.30;1.00
3794;DHT22;1912;51.358;12.282;2024-03-23T11:40:46;5.40;1.00
3794;DHT22;1912;51.358;12.282;2024-03-23T11:45:48;5.70;1.00
3794;DHT22;1912;51.358;12.282;2024-03-23T11:48:19;5.90;1.00
3794;DHT22;1912;51.358;12.282;2024-03-23T11:50:50;6.30;1.00
3794;DHT22;1912;51.358;12.282;2024-03-23T11:53:18;6.90;1.00
3794;DHT22;1912;51.358;12.282;2024-03-23T11:55:54;7.40;1.00
3794;DHT22;1912;51.358;12.282;2024-03-23T11:58:22;7.90;1.00
3794;DHT22;1912;51.358;12.282;2024-03-23T12:00:59;8.30;1.00
3794;DHT22;1912;51.358;12.282;2024-03-23T12:03:28;8.50;1.00
3794;DHT22;1912;51.358;12.282;2024-03-23T12:05:55;8.10;1.00
3794;DHT22;1912;51.358;12.282;2024-03-23T12:08:29;7.80;1.00
3794;DHT22;1912;51.358;12.282;2024-03-23T12:11:12;8.30;1.00
3794;DHT22;1912;51.358;12.282;2024-03-23T12:13:45;8.20;1.00
3794;DHT22;1912;51.358;12.282;2024-03-23T12:16:21;8.40;1.00
3794;DHT22;1912;51.358;12.282;2024-03-23T12:18:50;9.10;1.00
3794;DHT22;1912;51.358;12.282;2024-03-23T12:21:19;9.60;1.00
3794;DHT22;1912;51.358;12.282;2024-03-23T12:23:44;9.60;1.00
3794;DHT22;1912;51.358;12.282;2024-03-23T12:26:12;9.20;1.00
3794;DHT22;1912;51.358;12.282;2024-03-23T12:28:38;8.70;1.00
3794;DHT22;1912;51.358;12.282;2024-03-23T12:31:04;9.00;1.00
3794;DHT22;1912;51.358;12.282;2024-03-23T12:33:30;8.90;1.00
3794;DHT22;1912;51.358;12.282;2024-03-23T12:35:56;8.60;1.00
3794;DHT22;1912;51.358;12.282;2024-03-23T12:38:22;8.80;1.00
3794;DHT22;1912;51.358;12.282;2024-03-23T12:40:51;8.80;1.00
3794;DHT22;1912;51.358;12.282;2024-03-23T12:43:17;9.20;1.00
3794;DHT22;1912;51.358;12.282;2024-03-23T12:45:47;9.60;1.00
3794;DHT22;1912;51.358;12.282;2024-03-23T12:48:13;9.60;1.00
3794;DHT22;1912;51.358;12.282;2024-03-23T12:50:38;10.00;1.00
3794;DHT22;1912;51.358;12.282;2024-03-23T12:53:04;10.50;1.00
3794;DHT22;1912;51.358;12.282;2024-03-23T12:55:30;10.00;1.00
3794;DHT22;1912;51.358;12.282;2024-03-23T12:57:55;9.60;1.00
3794;DHT22;1912;51.358;12.282;2024-03-23T13:00:21;9.20;1.00
3794;DHT22;1912;51.358;12.282;2024-03-23T13:02:47;9.80;1.00
3794;DHT22;1912;51.358;12.282;2024-03-23T13:05:13;9.70;1.00
3794;DHT22;1912;51.358;12.282;2024-03-23T13:07:39;10.10;1.00
3794;DHT22;1912;51.358;12.282;2024-03-23T13:10:05;10.40;1.00
3794;DHT22;1912;51.358;12.282;2024-03-23T13:12:32;10.70;1.00
3794;DHT22;1912;51.358;12.282;2024-03-23T13:14:59;11.10;1.00
3794;DHT22;1912;51.358;12.282;2024-03-23T13:17:25;11.50;1.00
3794;DHT22;1912;51.358;12.282;2024-03-23T13:19:55;11.40;1.00
3794;DHT22;1912;51.358;12.282;2024-03-23T13:22:23;10.90;1.00
3794;DHT22;1912;51.358;12.282;2024-03-23T13:24:49;10.80;1.00
3794;DHT22;1912;51.358;12.282;2024-03-23T13:27:15;11.10;1.00
3794;DHT22;1912;51.358;12.282;2024-03-23T13:29:41;11.20;1.00
3794;DHT22;1912;51.358;12.282;2024-03-23T13:32:07;11.70;1.00
3794;DHT22;1912;51.358;12.282;2024-03-23T13:34:33;11.50;1.00
3794;DHT22;1912;51.358;12.282;2024-03-23T13:37:00;11.60;1.00
3794;DHT22;1912;51.358;12.282;2024-03-23T13:39:26;11.10;1.00
3794;DHT22;1912;51.358;12.282;2024-03-23T13:41:54;10.80;1.00
3794;DHT22;1912;51.358;12.282;2024-03-23T13:44:21;10.40;1.00
3794;DHT22;1912;51.358;12.282;2024-03-23T13:46:47;9.80;1.00
3794;DHT22;1912;51.358;12.282;2024-03-23T13:51:52;8.90;1.00
3794;DHT22;1912;51.358;12.282;2024-03-23T13:54:20;7.40;1.00
3794;DHT22;1912;51.358;12.282;2024-03-23T13:56:48;6.60;1.00
3794;DHT22;1912;51.358;12.282;2024-03-23T13:59:14;6.40;1.00
3794;DHT22;1912;51.358;12.282;2024-03-23T14:01:40;6.50;1.00
3794;DHT22;1912;51.358;12.282;2024-03-23T14:04:06;7.20;1.00
3794;DHT22;1912;51.358;12.282;2024-03-23T14:06:31;7.90;1.00
3794;DHT22;1912;51.358;12.282;2024-03-23T14:08:57;8.20;1.00
3794;DHT22;1912;51.358;12.282;2024-03-23T14:11:23;8.80;1.00
3794;DHT22;1912;51.358;12.282;2024-03-23T14:13:51;8.90;1.00
3794;DHT22;1912;51.358;12.282;2024-03-23T14:16:16;9.10;1.00
3794;DHT22;1912;51.358;12.282;2024-03-23T14:18:43;9.20;1.00
3794;DHT22;1912;51.358;12.282;2024-03-23T14:21:08;9.60;1.00
3794;DHT22;1912;51.358;12.282;2024-03-23T14:23:35;9.40;1.00
3794;DHT22;1912;51.358;12.282;2024-03-23T14:26:01;9.00;1.00
3794;DHT22;1912;51.358;12.282;2024-03-23T14:28:27;8.60;1.00
3794;DHT22;1912;51.358;12.282;2024-03-23T14:30:55;7.70;1.00
3794;DHT22;1912;51.358;12.282;2024-03-23T14:33:21;7.30;1.00
3794;DHT22;1912;51.358;12.282;2024-03-23T14:35:56;7.10;1.00
3794;DHT22;1912;51.358;12.282;2024-03-23T14:38:23;6.90;1.00
3794;DHT22;1912;51.358;12.282;2024-03-23T14:40:49;6.70;1.00
3794;DHT22;1912;51.358;12.282;2024-03-23T14:43:15;6.50;1.00
3794;DHT22;1912;51.358;12.282;2024-03-23T14:46:05;6.30;1.00
3794;DHT22;1912;51.358;12.282;2024-03-23T14:48:31;6.20;1.00
3794;DHT22;1912;51.358;12.282;2024-03-23T14:50:58;6.00;1.00
3794;DHT22;1912;51.358;12.282;2024-03-23T14:53:25;5.90;1.00
3794;DHT22;1912;51.358;12.282;2024-03-23T14:55:53;5.70;1.00
3794;DHT22;1912;51.358;12.282;2024-03-23T14:58:19;5.70;1.00
3794;DHT22;1912;51.358;12.282;2024-03-23T15:00:45;5.60;1.00
3794;DHT22;1912;51.358;12.282;2024-03-23T15:03:11;5.70;1.00
3794;DHT22;1912;51.358;12.282;2024-03-23T15:05:36;5.60;1.00
3794;DHT22;1912;51.358;12.282;2024-03-23T15:08:02;5.40;1.00
3794;DHT22;1912;51.358;12.282;2024-03-23T15:10:28;5.40;1.00
3794;DHT22;1912;51.358;12.282;2024-03-23T15:12:54;5.50;1.00
3794;DHT22;1912;51.358;12.282;2024-03-23T15:15:20;5.70;1.00
3794;DHT22;1912;51.358;12.282;2024-03-23T15:17:46;5.70;1.00
3794;DHT22;1912;51.358;12.282;2024-03-23T15:20:11;5.90;1.00
3794;DHT22;1912;51.358;12.282;2024-03-23T15:22:38;6.20;1.00
3794;DHT22;1912;51.358;12.282;2024-03-23T15:25:03;6.30;1.00
3794;DHT22;1912;51.358;12.282;2024-03-23T15:27:29;6.30;1.00
3794;DHT22;1912;51.358;12.282;2024-03-23T15:29:56;6.40;1.00
3794;DHT22;1912;51.358;12.282;2024-03-23T15:32:23;6.50;1.00
3794;DHT22;1912;51.358;12.282;2024-03-23T15:34:48;6.80;1.00
3794;DHT22;1912;51.358;12.282;2024-03-23T15:37:14;7.10;1.00
3794;DHT22;1912;51.358;12.282;2024-03-23T15:39:40;7.20;1.00
3794;DHT22;1912;51.358;12.282;2024-03-23T15:42:08;7.20;1.00
3794;DHT22;1912;51.358;12.282;2024-03-23T15:44:35;7.40;1.00
3794;DHT22;1912;51.358;12.282;2024-03-23T15:47:01;7.50;1.00
3794;DHT22;1912;51.358;12.282;2024-03-23T15:49:27;7.60;1.00
3794;DHT22;1912;51.358;12.282;2024-03-23T15:51:52;7.50;1.00
3794;DHT22;1912;51.358;12.282;2024-03-23T15:54:18;7.70;1.00
3794;DHT22;1912;51.358;12.282;2024-03-23T15:56:44;7.80;1.00
3794;DHT22;1912;51.358;12.282;2024-03-23T15:59:10;7.90;1.00
3794;DHT22;1912;51.358;12.282;2024-03-23T16:01:35;7.80;1.00
3794;DHT22;1912;51.358;12.282;2024-03-23T16:04:03;7.60;1.00
3794;DHT22;1912;51.358;12.282;2024-03-23T16:06:28;7.50;1.00
3794;DHT22;1912;51.358;12.282;2024-03-23T16:08:54;7.60;1.00
3794;DHT22;1912;51.358;12.282;2024-03-23T16:11:20;7.60;1.00
3794;DHT22;1912;51.358;12.282;2024-03-23T16:13:45;7.60;1.00
3794;DHT22;1912;51.358;12.282;2024-03-23T16:16:12;7.60;1.00
3794;DHT22;1912;51.358;12.282;2024-03-23T16:18:38;7.60;1.00
3794;DHT22;1912;51.358;12.282;2024-03-23T16:21:07;7.60;1.00
3794;DHT22;1912;51.358;12.282;2024-03-23T16:23:34;7.60;1.00
3794;DHT22;1912;51.358;12.282;2024-03-23T16:26:02;7.60;1.00
3794;DHT22;1912;51.358;12.282;2024-03-23T16:28:30;7.30;1.00
3794;DHT22;1912;51.358;12.282;2024-03-23T16:31:02;7.20;1.00
3794;DHT22;1912;51.358;12.282;2024-03-23T16:33:28;7.10;1.00
3794;DHT22;1912;51.358;12.282;2024-03-23T16:36:06;7.00;1.00
3794;DHT22;1912;51.358;12.282;2024-03-23T16:38:34;6.90;1.00
3794;DHT22;1912;51.358;12.282;2024-03-23T16:41:12;6.90;1.00
3794;DHT22;1912;51.358;12.282;2024-03-23T16:43:38;6.80;1.00
3794;DHT22;1912;51.358;12.282;2024-03-23T16:46:07;6.70;1.00
3794;DHT22;1912;51.358;12.282;2024-03-23T16:48:41;6.70;1.00
3794;DHT22;1912;51.358;12.282;2024-03-23T16:51:08;6.70;1.00
3794;DHT22;1912;51.358;12.282;2024-03-23T16:53:35;6.70;1.00
3794;DHT22;1912;51.358;12.282;2024-03-23T16:56:03;6.60;1.00
3794;DHT22;1912;51.358;12.282;2024-03-23T16:58:30;6.60;1.00
3794;DHT22;1912;51.358;12.282;2024-03-23T17:01:05;6.50;1.00
3794;DHT22;1912;51.358;12.282;2024-03-23T17:03:34;6.60;1.00
3794;DHT22;1912;51.358;12.282;2024-03-23T17:06:05;6.60;1.00
3794;DHT22;1912;51.358;12.282;2024-03-23T17:08:32;6.60;1.00
3794;DHT22;1912;51.358;12.282;2024-03-23T17:10:59;6.30;1.00
3794;DHT22;1912;51.358;12.282;2024-03-23T17:13:29;5.80;1.00
3794;DHT22;1912;51.358;12.282;2024-03-23T17:15:55;5.40;1.00
3794;DHT22;1912;51.358;12.282;2024-03-23T17:18:20;5.20;1.00
3794;DHT22;1912;51.358;12.282;2024-03-23T17:20:46;5.10;1.00
3794;DHT22;1912;51.358;12.282;2024-03-23T17:23:12;5.00;1.00
3794;DHT22;1912;51.358;12.282;2024-03-23T17:25:38;5.00;1.00
3794;DHT22;1912;51.358;12.282;2024-03-23T17:28:04;5.00;1.00
3794;DHT22;1912;51.358;12.282;2024-03-23T17:30:31;5.00;1.00
3794;DHT22;1912;51.358;12.282;2024-03-23T17:32:57;4.90;1.00
3794;DHT22;1912;51.358;12.282;2024-03-23T17:35:22;4.90;1.00
3794;DHT22;1912;51.358;12.282;2024-03-23T17:37:48;4.90;1.00
3794;DHT22;1912;51.358;12.282;2024-03-23T17:40:14;4.80;1.00
3794;DHT22;1912;51.358;12.282;2024-03-23T17:42:41;4.80;1.00
3794;DHT22;1912;51.358;12.282;2024-03-23T17:45:07;4.60;1.00
3794;DHT22;1912;51.358;12.282;2024-03-23T17:47:41;4.50;1.00
3794;DHT22;1912;51.358;12.282;2024-03-23T17:50:07;4.40;1.00
3794;DHT22;1912;51.358;12.282;2024-03-23T17:52:34;4.30;1.00
3794;DHT22;1912;51.358;12.282;2024-03-23T17:55:00;4.20;1.00
3794;DHT22;1912;51.358;12.282;2024-03-23T17:57:26;4.20;1.00
3794;DHT22;1912;51.358;12.282;2024-03-23T17:59:53;4.10;1.00
3794;DHT22;1912;51.358;12.282;2024-03-23T18:02:19;4.10;1.00
3794;DHT22;1912;51.358;12.282;2024-03-23T18:04:46;4.00;1.00
3794;DHT22;1912;51.358;12.282;2024-03-23T18:07:13;4.00;1.00
3794;DHT22;1912;51.358;12.282;2024-03-23T18:09:38;4.00;1.00
3794;DHT22;1912;51.358;12.282;2024-03-23T18:12:05;4.00;1.00
3794;DHT22;1912;51.358;12.282;2024-03-23T18:14:31;4.00;1.00
3794;DHT22;1912;51.358;12.282;2024-03-23T18:16:57;4.00;1.00
3794;DHT22;1912;51.358;12.282;2024-03-23T18:19:23;4.00;1.00
3794;DHT22;1912;51.358;12.282;2024-03-23T18:21:49;4.00;1.00
3794;DHT22;1912;51.358;12.282;2024-03-23T18:24:15;4.10;1.00
3794;DHT22;1912;51.358;12.282;2024-03-23T18:26:41;4.00;1.00
3794;DHT22;1912;51.358;12.282;2024-03-23T18:29:07;4.00;1.00
3794;DHT22;1912;51.358;12.282;2024-03-23T18:31:33;3.90;1.00
3794;DHT22;1912;51.358;12.282;2024-03-23T18:33:59;3.90;1.00
3794;DHT22;1912;51.358;12.282;2024-03-23T18:36:29;3.90;1.00
3794;DHT22;1912;51.358;12.282;2024-03-23T18:38:54;3.90;1.00
3794;DHT22;1912;51.358;12.282;2024-03-23T18:41:22;3.80;1.00
3794;DHT22;1912;51.358;12.282;2024-03-23T18:43:48;3.80;1.00
3794;DHT22;1912;51.358;12.282;2024-03-23T18:46:15;3.70;1.00
3794;DHT22;1912;51.358;12.282;2024-03-23T18:48:41;3.60;1.00
3794;DHT22;1912;51.358;12.282;2024-03-23T18:51:07;3.60;1.00
3794;DHT22;1912;51.358;12.282;2024-03-23T18:53:33;3.50;1.00
3794;DHT22;1912;51.358;12.282;2024-03-23T18:55:59;3.40;1.00
3794;DHT22;1912;51.358;12.282;2024-03-23T18:58:28;3.40;1.00
3794;DHT22;1912;51.358;12.282;2024-03-23T19:01:04;3.30;1.00
3794;DHT22;1912;51.358;12.282;2024-03-23T19:03:31;3.30;1.00
3794;DHT22;1912;51.358;12.282;2024-03-23T19:05:58;3.30;1.00
3794;DHT22;1912;51.358;12.282;2024-03-23T19:08:25;3.30;1.00
3794;DHT22;1912;51.358;12.282;2024-03-23T19:10:55;3.30;1.00
3794;DHT22;1912;51.358;12.282;2024-03-23T19:13:22;3.40;1.00
3794;DHT22;1912;51.358;12.282;2024-03-23T19:15:48;3.30;1.00
3794;DHT22;1912;51.358;12.282;2024-03-23T19:18:14;3.40;1.00
3794;DHT22;1912;51.358;12.282;2024-03-23T19:20:40;3.40;1.00
3794;DHT22;1912;51.358;12.282;2024-03-23T19:23:06;3.40;1.00
3794;DHT22;1912;51.358;12.282;2024-03-23T19:25:34;3.50;1.00
3794;DHT22;1912;51.358;12.282;2024-03-23T19:28:00;3.60;1.00
3794;DHT22;1912;51.358;12.282;2024-03-23T19:30:29;3.60;1.00
3794;DHT22;1912;51.358;12.282;2024-03-23T19:32:56;3.60;1.00
3794;DHT22;1912;51.358;12.282;2024-03-23T19:35:24;3.60;1.00
3794;DHT22;1912;51.358;12.282;2024-03-23T19:37:53;3.70;1.00
3794;DHT22;1912;51.358;12.282;2024-03-23T19:40:19;3.70;1.00
3794;DHT22;1912;51.358;12.282;2024-03-23T19:42:45;3.80;1.00
3794;DHT22;1912;51.358;12.282;2024-03-23T19:45:11;3.80;1.00
3794;DHT22;1912;51.358;12.282;2024-03-23T19:47:40;3.90;1.00
3794;DHT22;1912;51.358;12.282;2024-03-23T19:50:06;4.00;1.00
3794;DHT22;1912;51.358;12.282;2024-03-23T19:52:34;4.00;1.00
3794;DHT22;1912;51.358;12.282;2024-03-23T19:55:04;4.00;1.00
3794;DHT22;1912;51.358;12.282;2024-03-23T19:57:30;4.10;1.00
3794;DHT22;1912;51.358;12.282;2024-03-23T19:59:56;4.10;1.00
3794;DHT22;1912;51.358;12.282;2024-03-23T20:02:23;4.10;1.00
3794;DHT22;1912;51.358;12.282;2024-03-23T20:04:49;4.20;1.00
3794;DHT22;1912;51.358;12.282;2024-03-23T20:07:15;4.20;1.00
3794;DHT22;1912;51.358;12.282;2024-03-23T20:09:41;4.20;1.00
3794;DHT22;1912;51.358;12.282;2024-03-23T20:12:07;4.20;1.00
3794;DHT22;1912;51.358;12.282;2024-03-23T20:14:33;4.20;1.00
3794;DHT22;1912;51.358;12.282;2024-03-23T20:16:59;4.20;1.00
3794;DHT22;1912;51.358;12.282;2024-03-23T20:19:25;4.30;1.00
3794;DHT22;1912;51.358;12.282;2024-03-23T20:21:51;4.30;1.00
3794;DHT22;1912;51.358;12.282;2024-03-23T20:24:16;4.30;1.00
3794;DHT22;1912;51.358;12.282;2024-03-23T20:26:42;4.30;1.00
3794;DHT22;1912;51.358;12.282;2024-03-23T20:29:08;4.20;1.00
3794;DHT22;1912;51.358;12.282;2024-03-23T20:31:33;4.20;1.00
3794;DHT22;1912;51.358;12.282;2024-03-23T20:34:01;4.10;1.00
3794;DHT22;1912;51.358;12.282;2024-03-23T20:36:27;4.10;1.00
3794;DHT22;1912;51.358;12.282;2024-03-23T20:38:53;4.00;1.00
3794;DHT22;1912;51.358;12.282;2024-03-23T20:41:19;4.10;1.00
3794;DHT22;1912;51.358;12.282;2024-03-23T20:43:45;4.10;1.00
3794;DHT22;1912;51.358;12.282;2024-03-23T20:46:12;4.10;1.00
3794;DHT22;1912;51.358;12.282;2024-03-23T20:48:39;4.10;1.00
3794;DHT22;1912;51.358;12.282;2024-03-23T20:51:12;4.10;1.00
3794;DHT22;1912;51.358;12.282;2024-03-23T20:53:38;4.00;1.00
3794;DHT22;1912;51.358;12.282;2024-03-23T20:56:04;4.00;1.00
3794;DHT22;1912;51.358;12.282;2024-03-23T20:58:31;4.00;1.00
3794;DHT22;1912;51.358;12.282;2024-03-23T21:01:04;3.90;1.00
3794;DHT22;1912;51.358;12.282;2024-03-23T21:03:30;3.80;1.00
3794;DHT22;1912;51.358;12.282;2024-03-23T21:05:57;3.70;1.00
3794;DHT22;1912;51.358;12.282;2024-03-23T21:08:23;3.60;1.00
3794;DHT22;1912;51.358;12.282;2024-03-23T21:10:52;3.50;1.00
3794;DHT22;1912;51.358;12.282;2024-03-23T21:13:20;3.40;1.00
3794;DHT22;1912;51.358;12.282;2024-03-23T21:15:51;3.40;1.00
3794;DHT22;1912;51.358;12.282;2024-03-23T21:18:25;3.40;1.00